Time;durP1;ratioP1;P1;durP2;ratioP2;P2;SDS_P1;SDS_P2;PMS_P1;PMS_P2;Temp;Humidity;BMP_temperature;BMP_pressure;BME280_temperature;BME280_humidity;BME280_pressure;Samples;Min_cycle;Max_cycle;Signal;HPM_P1;HPM_P2
2022/03/14 00:00:58;;;;;;;3.03;2.20;;;18.30;42.40;;;;;;4812052;29;20173;-88
2022/03/14 00:03:25;;;;;;;3.55;2.30;;;18.40;42.50;;;;;;4811358;29;20256;-86
2022/03/14 00:05:52;;;;;;;3.20;2.10;;;18.30;42.50;;;;;;4827020;29;20253;-86
2022/03/14 00:08:21;;;;;;;2.85;2.20;;;18.30;42.40;;;;;;4826601;29;20188;-87
2022/03/14 00:10:49;;;;;;;4.53;2.40;;;18.30;42.50;;;;;;4827254;29;20606;-88
2022/03/14 00:13:17;;;;;;;4.32;2.33;;;18.30;42.70;;;;;;4827057;29;20157;-87
2022/03/14 00:15:43;;;;;;;3.03;2.20;;;18.30;42.50;;;;;;4841552;29;20169;-86
2022/03/14 00:18:10;;;;;;;4.50;2.03;;;18.30;42.70;;;;;;4826485;29;20261;-86
2022/03/14 00:20:37;;;;;;;2.72;1.83;;;18.30;42.50;;;;;;4842916;29;20188;-83
2022/03/14 00:23:02;;;;;;;3.42;2.40;;;18.30;42.60;;;;;;4828295;29;20199;-86
2022/03/14 00:25:30;;;;;;;2.97;2.00;;;18.30;42.50;;;;;;4836241;29;20622;-86
2022/03/14 00:27:55;;;;;;;2.90;2.13;;;18.20;42.40;;;;;;4854121;29;20173;-88
2022/03/14 00:30:22;;;;;;;3.80;2.20;;;18.30;42.60;;;;;;4854335;29;20693;-86
2022/03/14 00:32:49;;;;;;;3.67;2.30;;;18.30;42.60;;;;;;4822469;29;20173;-85
2022/03/14 00:35:21;;;;;;;3.00;2.22;;;18.30;42.60;;;;;;4832089;29;20312;-86
2022/03/14 00:37:46;;;;;;;2.75;2.20;;;18.20;42.50;;;;;;4841178;29;20158;-88
2022/03/14 00:40:12;;;;;;;3.22;2.30;;;18.20;42.40;;;;;;4826226;29;20542;-86
2022/03/14 00:42:39;;;;;;;3.28;2.60;;;18.20;42.80;;;;;;4841281;29;20166;-86
2022/03/14 00:45:05;;;;;;;3.17;2.08;;;18.20;42.60;;;;;;4811510;29;20629;-88
2022/03/14 00:47:31;;;;;;;2.90;2.40;;;18.20;42.80;;;;;;4826224;29;20177;-86
2022/03/14 00:49:56;;;;;;;3.45;2.40;;;18.20;42.70;;;;;;4841517;29;20169;-85
2022/03/14 00:52:22;;;;;;;3.50;2.20;;;18.20;42.70;;;;;;4841205;29;20246;-84
2022/03/14 00:54:49;;;;;;;7.65;2.45;;;18.20;42.90;;;;;;4825925;29;20190;-85
2022/03/14 00:57:15;;;;;;;2.85;2.33;;;18.20;43.00;;;;;;4826223;29;20257;-85
2022/03/14 00:59:41;;;;;;;3.95;2.30;;;18.20;43.70;;;;;;4826797;29;20177;-86
2022/03/14 01:02:07;;;;;;;2.90;2.35;;;18.20;42.70;;;;;;4827347;29;20260;-84
2022/03/14 01:04:36;;;;;;;2.75;2.28;;;18.10;42.90;;;;;;4827234;29;20195;-86
2022/03/14 01:07:05;;;;;;;2.83;2.17;;;18.20;42.50;;;;;;4827411;29;20205;-84
2022/03/14 01:09:35;;;;;;;5.00;2.55;;;18.20;43.00;;;;;;4827697;29;20193;-87
2022/03/14 01:12:04;;;;;;;3.35;2.30;;;18.20;42.80;;;;;;4844455;29;20224;-82
2022/03/14 01:14:33;;;;;;;4.93;2.60;;;18.20;43.00;;;;;;4829889;29;20233;-85
2022/03/14 01:16:58;;;;;;;3.53;2.10;;;18.10;43.10;;;;;;4816614;29;20189;-85
2022/03/14 01:19:27;;;;;;;4.70;2.40;;;18.10;43.00;;;;;;4862887;29;20183;-85
2022/03/14 01:21:57;;;;;;;3.60;2.40;;;18.10;43.20;;;;;;4831237;29;20200;-84
2022/03/14 01:24:28;;;;;;;3.42;2.58;;;18.10;43.10;;;;;;4846616;29;20279;-86
2022/03/14 01:26:56;;;;;;;3.03;2.40;;;18.10;43.20;;;;;;4832903;29;20188;-84
2022/03/14 01:29:26;;;;;;;3.55;2.35;;;18.10;43.10;;;;;;4849883;29;20192;-86
2022/03/14 01:31:54;;;;;;;2.78;2.40;;;18.10;43.20;;;;;;4835063;29;20188;-84
2022/03/14 01:34:22;;;;;;;2.85;2.20;;;18.10;43.20;;;;;;4849837;29;20212;-87
2022/03/14 01:36:48;;;;;;;3.22;2.30;;;18.10;43.20;;;;;;4834340;29;20235;-87
2022/03/14 01:39:15;;;;;;;5.50;2.42;;;18.10;43.20;;;;;;4865841;29;20632;-84
2022/03/14 01:41:43;;;;;;;3.13;2.60;;;18.10;43.20;;;;;;4835142;29;20545;-85
2022/03/14 01:44:10;;;;;;;3.13;2.60;;;18.10;43.10;;;;;;4849678;29;20184;-86
2022/03/14 01:46:36;;;;;;;3.00;2.28;;;18.00;43.10;;;;;;4865652;29;20164;-85
2022/03/14 01:49:02;;;;;;;2.90;2.30;;;18.10;43.30;;;;;;4865784;29;20616;-85
2022/03/14 01:51:32;;;;;;;3.88;2.53;;;18.10;43.30;;;;;;4865594;29;20651;-84
2022/03/14 01:54:01;;;;;;;3.22;2.40;;;18.10;43.20;;;;;;4834090;29;20227;-85
2022/03/14 01:56:29;;;;;;;3.88;2.70;;;18.00;43.20;;;;;;4849185;29;20186;-85
2022/03/14 01:58:58;;;;;;;3.53;2.30;;;18.10;43.30;;;;;;4849182;29;20221;-85
2022/03/14 02:01:27;;;;;;;4.47;2.50;;;18.00;43.20;;;;;;4849343;29;20648;-86
2022/03/14 02:03:56;;;;;;;2.95;2.33;;;18.10;43.30;;;;;;4849217;29;20196;-84
2022/03/14 02:06:24;;;;;;;3.30;2.50;;;18.10;43.30;;;;;;4834242;29;20656;-86
2022/03/14 02:08:50;;;;;;;2.65;2.22;;;18.00;43.20;;;;;;4833748;29;20188;-86
2022/03/14 02:11:15;;;;;;;3.33;2.60;;;18.00;43.40;;;;;;4849961;29;20187;-85
2022/03/14 02:13:41;;;;;;;3.25;2.38;;;18.00;43.40;;;;;;4865190;29;20199;-85
2022/03/14 02:16:07;;;;;;;4.88;2.50;;;18.10;43.20;;;;;;4850039;29;20179;-85
2022/03/14 02:18:32;;;;;;;2.38;2.10;;;18.00;43.40;;;;;;4849575;29;20232;-86
2022/03/14 02:20:59;;;;;;;3.80;2.65;;;18.10;43.40;;;;;;4865133;29;20533;-86
2022/03/14 02:23:25;;;;;;;3.42;2.50;;;18.00;43.50;;;;;;4864954;29;20165;-86
2022/03/14 02:25:52;;;;;;;4.30;2.60;;;18.00;43.50;;;;;;4865727;29;20175;-86
2022/03/14 02:28:19;;;;;;;3.15;2.30;;;18.10;43.20;;;;;;4865260;29;20167;-85
2022/03/14 02:30:45;;;;;;;2.70;2.40;;;18.00;43.20;;;;;;4865291;29;20518;-86
2022/03/14 02:33:13;;;;;;;4.18;2.67;;;18.00;43.20;;;;;;4864725;29;20176;-87
2022/03/14 02:35:42;;;;;;;4.47;2.38;;;18.00;43.50;;;;;;4833240;29;20224;-86
2022/03/14 02:38:16;;;;;;;4.03;2.60;;;18.00;43.20;;;;;;4833300;29;20195;-85
2022/03/14 02:40:46;;;;;;;3.00;2.22;;;18.00;43.40;;;;;;4836117;29;20264;-85
2022/03/14 02:43:15;;;;;;;3.80;2.50;;;18.00;43.50;;;;;;4865316;29;20620;-85
2022/03/14 02:45:41;;;;;;;2.58;2.10;;;18.00;43.50;;;;;;4864788;29;20152;-85
2022/03/14 02:48:08;;;;;;;4.07;2.60;;;18.00;43.50;;;;;;4864767;29;20179;-85
2022/03/14 02:50:38;;;;;;;3.85;2.70;;;18.00;43.40;;;;;;4832795;29;20180;-86
2022/03/14 02:53:05;;;;;;;3.80;2.55;;;18.00;43.50;;;;;;4833795;29;20184;-86
2022/03/14 02:55:31;;;;;;;3.58;2.58;;;17.90;43.50;;;;;;4832747;29;20220;-86
2022/03/14 02:57:59;;;;;;;4.15;2.80;;;18.00;43.40;;;;;;4864366;29;20195;-85
2022/03/14 03:00:25;;;;;;;3.17;2.30;;;17.90;43.40;;;;;;4848703;29;20279;-86
2022/03/14 03:02:52;;;;;;;4.05;2.55;;;18.00;43.60;;;;;;4833213;29;20203;-87
2022/03/14 03:05:18;;;;;;;3.45;2.50;;;18.00;43.30;;;;;;4817818;29;20263;-87
2022/03/14 03:07:47;;;;;;;3.17;2.40;;;17.90;43.50;;;;;;4848753;29;20627;-85
2022/03/14 03:10:17;;;;;;;4.95;2.45;;;18.00;43.30;;;;;;4864691;29;20208;-86
2022/03/14 03:12:43;;;;;;;3.30;2.63;;;18.00;43.50;;;;;;4864529;29;20183;-85
2022/03/14 03:15:12;;;;;;;3.38;2.58;;;18.00;43.50;;;;;;4863971;29;20201;-85
2022/03/14 03:17:38;;;;;;;3.97;2.60;;;18.00;43.50;;;;;;4838871;29;20221;-87
2022/03/14 03:20:04;;;;;;;2.90;2.60;;;18.00;43.50;;;;;;4827271;29;20180;-84
2022/03/14 03:22:29;;;;;;;4.10;2.85;;;17.90;43.30;;;;;;4827380;29;20176;-86
2022/03/14 03:24:55;;;;;;;4.75;2.83;;;17.90;43.50;;;;;;4842701;29;20170;-85
2022/03/14 03:27:21;;;;;;;2.95;2.50;;;17.90;43.50;;;;;;4842469;29;20205;-87
2022/03/14 03:29:47;;;;;;;2.80;2.30;;;17.90;43.50;;;;;;4812060;29;20205;-85
2022/03/14 03:32:12;;;;;;;4.80;2.40;;;17.90;43.40;;;;;;4827489;29;20178;-87
2022/03/14 03:34:38;;;;;;;3.60;2.60;;;18.00;43.50;;;;;;4842222;29;20617;-85
2022/03/14 03:37:08;;;;;;;3.80;2.67;;;17.90;43.60;;;;;;4843621;29;20641;-86
2022/03/14 03:39:34;;;;;;;3.13;2.40;;;17.90;43.70;;;;;;4826292;29;20284;-87
2022/03/14 03:42:00;;;;;;;3.10;2.40;;;18.00;43.80;;;;;;4843374;29;20197;-86
2022/03/14 03:44:28;;;;;;;3.47;2.38;;;18.00;43.70;;;;;;4827116;29;20174;-87
2022/03/14 03:46:57;;;;;;;3.72;2.67;;;17.90;43.60;;;;;;4812607;29;20169;-86
2022/03/14 03:49:26;;;;;;;3.58;2.63;;;17.90;43.50;;;;;;4825768;29;20205;-86
2022/03/14 03:51:51;;;;;;;2.92;2.58;;;17.90;43.70;;;;;;4826044;29;20218;-86
2022/03/14 03:54:21;;;;;;;3.65;2.50;;;17.90;43.50;;;;;;4843004;29;20197;-87
2022/03/14 03:56:49;;;;;;;3.42;2.60;;;17.90;43.60;;;;;;4826311;29;20193;-84
2022/03/14 03:59:16;;;;;;;3.85;2.78;;;17.90;43.80;;;;;;4841273;29;20618;-86
2022/03/14 04:01:43;;;;;;;3.83;2.50;;;17.90;43.60;;;;;;4826757;29;20241;-85
2022/03/14 04:04:09;;;;;;;3.60;2.30;;;17.90;43.70;;;;;;4812190;29;20181;-84
2022/03/14 04:06:35;;;;;;;3.25;2.58;;;17.90;43.80;;;;;;4841822;29;20178;-86
2022/03/14 04:09:03;;;;;;;3.08;2.72;;;17.90;43.60;;;;;;4811378;29;20174;-85
2022/03/14 04:11:29;;;;;;;3.60;2.88;;;17.90;43.60;;;;;;4812107;29;20178;-86
2022/03/14 04:13:56;;;;;;;4.45;2.78;;;17.80;43.40;;;;;;4826431;29;20192;-86
2022/03/14 04:16:27;;;;;;;3.67;2.55;;;17.90;44.50;;;;;;4826838;29;20157;-86
2022/03/14 04:18:57;;;;;;;4.05;2.58;;;17.90;43.80;;;;;;4838995;29;20229;-87
2022/03/14 04:21:30;;;;;;;4.13;2.55;;;17.90;44.40;;;;;;4840735;29;20195;-86
2022/03/14 04:23:58;;;;;;;4.45;3.00;;;17.90;43.40;;;;;;4840948;29;20665;-85
2022/03/14 04:26:27;;;;;;;3.60;2.60;;;17.90;43.60;;;;;;4841273;29;20200;-85
2022/03/14 04:28:53;;;;;;;3.92;2.80;;;17.90;43.80;;;;;;4840742;29;20287;-86
2022/03/14 04:31:19;;;;;;;5.35;2.90;;;17.90;43.80;;;;;;4826361;29;20722;-87
2022/03/14 04:33:44;;;;;;;3.88;2.67;;;17.80;43.80;;;;;;4826645;29;20212;-84
2022/03/14 04:36:13;;;;;;;4.03;2.47;;;17.80;43.50;;;;;;4811450;29;20201;-85
2022/03/14 04:38:41;;;;;;;3.22;2.65;;;17.90;43.70;;;;;;4840945;29;20642;-84
2022/03/14 04:41:09;;;;;;;3.90;2.72;;;17.90;43.60;;;;;;4840781;29;20200;-87
2022/03/14 04:43:35;;;;;;;3.63;2.50;;;17.90;43.80;;;;;;4840753;29;20551;-86
2022/03/14 04:46:01;;;;;;;2.90;2.60;;;17.90;43.80;;;;;;4841717;29;20223;-87
2022/03/14 04:48:27;;;;;;;3.30;2.75;;;17.80;43.50;;;;;;4826274;29;20629;-85
2022/03/14 04:50:52;;;;;;;4.75;2.80;;;17.90;44.30;;;;;;4841988;29;20177;-86
2022/03/14 04:53:18;;;;;;;4.28;2.88;;;17.90;43.80;;;;;;4811706;29;20218;-86
2022/03/14 04:55:45;;;;;;;3.35;2.90;;;17.90;43.80;;;;;;4860994;29;20209;-87
2022/03/14 04:58:15;;;;;;;4.03;2.65;;;17.90;43.70;;;;;;4845063;29;20559;-86
2022/03/14 05:00:42;;;;;;;4.35;3.03;;;17.90;43.80;;;;;;4845826;29;20185;-86
2022/03/14 05:03:13;;;;;;;3.42;2.40;;;17.80;43.70;;;;;;4849041;29;20641;-86
2022/03/14 05:05:44;;;;;;;2.75;2.50;;;17.80;43.60;;;;;;4849236;29;20197;-85
2022/03/14 05:08:10;;;;;;;2.65;2.45;;;17.80;43.70;;;;;;4865849;29;20653;-86
2022/03/14 05:10:36;;;;;;;3.80;2.80;;;17.90;43.70;;;;;;4836722;29;20633;-86
2022/03/14 05:13:02;;;;;;;3.28;2.45;;;17.90;43.80;;;;;;4858355;29;20190;-85
2022/03/14 05:15:29;;;;;;;3.72;2.60;;;17.80;43.80;;;;;;4858512;29;20202;-85
2022/03/14 05:17:55;;;;;;;3.30;2.67;;;17.70;43.80;;;;;;4852704;29;20222;-87
2022/03/14 05:20:21;;;;;;;3.35;2.67;;;17.80;43.70;;;;;;4860606;29;20180;-85
2022/03/14 05:22:51;;;;;;;3.42;2.50;;;17.90;43.80;;;;;;4871509;29;20575;-85
2022/03/14 05:25:22;;;;;;;3.42;2.85;;;17.90;43.50;;;;;;4835018;29;20179;-88
2022/03/14 05:27:53;;;;;;;3.63;2.88;;;17.90;43.50;;;;;;4819974;29;20180;-86
2022/03/14 05:30:23;;;;;;;4.57;2.70;;;17.90;43.40;;;;;;4820331;29;20188;-85
2022/03/14 05:32:52;;;;;;;3.72;2.65;;;17.90;43.70;;;;;;4834536;29;20191;-87
2022/03/14 05:35:20;;;;;;;3.05;2.65;;;17.80;43.70;;;;;;4834491;29;20227;-85
2022/03/14 05:37:49;;;;;;;3.78;2.67;;;17.90;43.50;;;;;;4849817;29;20184;-87
2022/03/14 05:40:18;;;;;;;3.72;2.60;;;17.90;43.70;;;;;;4849695;29;20514;-86
2022/03/14 05:42:47;;;;;;;4.15;3.10;;;17.80;43.50;;;;;;4866465;29;20186;-86
2022/03/14 05:45:15;;;;;;;4.40;2.88;;;17.90;43.50;;;;;;4849578;29;20256;-86
2022/03/14 05:47:41;;;;;;;3.25;2.72;;;17.90;43.60;;;;;;4834432;29;20184;-87
2022/03/14 05:50:07;;;;;;;3.30;2.70;;;17.90;43.00;;;;;;4865377;29;20628;-86
2022/03/14 05:52:33;;;;;;;5.22;3.17;;;17.90;42.70;;;;;;4865578;29;20172;-85
2022/03/14 05:54:58;;;;;;;3.63;2.78;;;18.00;43.00;;;;;;4865934;29;20192;-85
2022/03/14 05:57:25;;;;;;;3.55;2.70;;;18.10;42.50;;;;;;4865400;29;20552;-86
2022/03/14 05:59:50;;;;;;;5.40;3.20;;;18.10;42.50;;;;;;4850117;29;20680;-86
2022/03/14 06:02:23;;;;;;;4.88;3.00;;;18.10;42.80;;;;;;4865329;29;20160;-86
2022/03/14 06:04:51;;;;;;;3.78;2.83;;;18.10;42.40;;;;;;4842966;29;20279;-85
2022/03/14 06:07:21;;;;;;;3.83;3.05;;;18.10;42.50;;;;;;4846821;29;20173;-85
2022/03/14 06:09:51;;;;;;;4.75;3.13;;;18.20;42.10;;;;;;4845945;29;20161;-85
2022/03/14 06:12:35;;;;;;;4.07;3.08;;;18.20;42.20;;;;;;4815425;29;20303;-85
2022/03/14 06:15:10;;;;;;;4.00;2.92;;;18.30;42.10;;;;;;4816112;29;20680;-87
2022/03/14 06:17:36;;;;;;;4.20;3.08;;;18.30;41.70;;;;;;4808438;29;20311;-87
2022/03/14 06:20:02;;;;;;;4.10;3.22;;;18.30;41.70;;;;;;4827326;29;20260;-86
2022/03/14 06:22:28;;;;;;;4.25;3.20;;;18.30;41.60;;;;;;4844027;29;20157;-87
2022/03/14 06:24:53;;;;;;;4.30;3.05;;;18.30;41.40;;;;;;4846578;29;20261;-86
2022/03/14 06:27:21;;;;;;;3.85;3.20;;;18.40;41.70;;;;;;4828371;29;20201;-87
2022/03/14 06:29:47;;;;;;;4.03;3.08;;;18.40;41.60;;;;;;4842496;29;20225;-85
2022/03/14 06:32:14;;;;;;;4.57;3.00;;;18.40;41.10;;;;;;4843040;29;20158;-85
2022/03/14 06:34:44;;;;;;;4.05;3.13;;;18.40;41.60;;;;;;4842249;29;20197;-85
2022/03/14 06:37:13;;;;;;;4.40;3.03;;;18.40;41.00;;;;;;4811870;29;20186;-87
2022/03/14 06:39:38;;;;;;;4.88;3.08;;;18.40;41.40;;;;;;4826894;29;20217;-88
2022/03/14 06:42:09;;;;;;;4.13;3.20;;;18.50;41.30;;;;;;4843861;29;20191;-86
2022/03/14 06:44:38;;;;;;;3.50;2.88;;;18.50;41.30;;;;;;4828852;29;20173;-87
2022/03/14 06:47:08;;;;;;;3.83;3.40;;;18.40;41.00;;;;;;4812616;29;20185;-86
2022/03/14 06:49:37;;;;;;;5.10;3.60;;;18.50;40.70;;;;;;4812276;29;20195;-86
2022/03/14 06:52:04;;;;;;;4.45;3.75;;;18.50;40.50;;;;;;4827970;29;20193;-86
2022/03/14 06:54:29;;;;;;;4.43;3.33;;;18.60;40.20;;;;;;4829255;29;20216;-86
2022/03/14 06:57:00;;;;;;;6.13;3.50;;;18.60;40.70;;;;;;4830189;29;20260;-86
2022/03/14 06:59:27;;;;;;;5.35;3.33;;;18.60;40.50;;;;;;4815184;29;20185;-87
2022/03/14 07:01:54;;;;;;;7.43;3.55;;;18.60;41.40;;;;;;4816411;29;20355;-86
2022/03/14 07:04:21;;;;;;;4.20;3.10;;;18.60;40.50;;;;;;4813479;29;20193;-86
2022/03/14 07:06:46;;;;;;;4.47;3.30;;;18.60;40.60;;;;;;4828282;29;20749;-86
2022/03/14 07:09:15;;;;;;;3.85;3.30;;;18.60;40.50;;;;;;4829657;29;20221;-88
2022/03/14 07:11:44;;;;;;;3.85;3.17;;;18.70;40.50;;;;;;4797301;29;20196;-86
2022/03/14 07:14:13;;;;;;;4.45;3.83;;;18.60;40.30;;;;;;4814470;29;20217;-87
2022/03/14 07:16:52;;;;;;;5.50;3.42;;;18.70;40.30;;;;;;4798549;29;20185;-86
2022/03/14 07:19:18;;;;;;;4.70;3.60;;;18.70;40.10;;;;;;4799536;29;20221;-85
2022/03/14 07:21:44;;;;;;;4.03;3.13;;;18.70;40.00;;;;;;4813394;29;20180;-84
2022/03/14 07:24:13;;;;;;;5.63;3.85;;;18.70;40.40;;;;;;4829928;29;20257;-86
2022/03/14 07:26:39;;;;;;;4.97;3.42;;;18.70;39.80;;;;;;4828266;29;20257;-84
2022/03/14 07:29:05;;;;;;;6.15;3.55;;;18.70;40.80;;;;;;4813004;29;20181;-86
2022/03/14 07:31:33;;;;;;;5.03;3.25;;;18.80;40.10;;;;;;4845843;29;20212;-86
2022/03/14 07:33:59;;;;;;;4.15;3.28;;;18.70;39.90;;;;;;4848560;29;20201;-88
2022/03/14 07:36:26;;;;;;;5.43;3.53;;;18.80;40.10;;;;;;4834764;29;20249;-89
2022/03/14 07:39:04;;;;;;;5.45;3.80;;;18.80;40.00;;;;;;4811561;29;20185;-88
2022/03/14 07:41:30;;;;;;;5.50;3.55;;;18.80;39.90;;;;;;4826758;29;20182;-87
2022/03/14 07:44:06;;;;;;;8.05;3.70;;;18.80;40.10;;;;;;4839930;29;20230;-87
2022/03/14 07:46:34;;;;;;;4.40;3.60;;;18.80;40.00;;;;;;4817780;29;20228;-85
2022/03/14 07:49:05;;;;;;;5.03;3.88;;;18.80;40.00;;;;;;4831583;29;20611;-88
2022/03/14 07:51:38;;;;;;;5.60;3.40;;;18.80;39.70;;;;;;4816142;29;20214;-86
2022/03/14 07:54:10;;;;;;;4.75;3.20;;;18.90;39.60;;;;;;4813714;29;20217;-88
2022/03/14 07:56:36;;;;;;;4.88;3.78;;;18.80;39.80;;;;;;4780062;29;20278;-81
2022/03/14 07:59:03;;;;;;;4.40;3.72;;;18.80;39.80;;;;;;4825946;29;20704;-83
2022/03/14 08:01:29;;;;;;;8.02;4.15;;;18.90;39.60;;;;;;4812205;29;20650;-81
2022/03/14 08:04:03;;;;;;;8.05;4.10;;;18.90;39.60;;;;;;4825790;29;20181;-86
2022/03/14 08:06:41;;;;;;;5.22;3.42;;;19.00;39.80;;;;;;4796575;29;20190;-84
2022/03/14 08:09:12;;;;;;;5.78;3.80;;;19.00;40.20;;;;;;4826460;29;20182;-83
2022/03/14 08:11:41;;;;;;;5.43;3.60;;;18.90;40.10;;;;;;4811936;29;20198;-85
2022/03/14 08:14:07;;;;;;;4.68;3.35;;;18.90;40.20;;;;;;4825868;29;20230;-84
2022/03/14 08:16:32;;;;;;;6.10;3.65;;;18.80;40.30;;;;;;4827274;29;20162;-83
2022/03/14 08:19:01;;;;;;;6.70;3.70;;;18.90;40.10;;;;;;4839807;29;20260;-85
2022/03/14 08:21:40;;;;;;;4.28;3.42;;;18.80;40.60;;;;;;4827881;29;20208;-84
2022/03/14 08:24:06;;;;;;;5.35;3.80;;;18.80;41.00;;;;;;4810286;29;20190;-80
2022/03/14 08:26:33;;;;;;;8.18;4.10;;;18.80;39.80;;;;;;4805640;29;20198;-86
2022/03/14 08:29:00;;;;;;;5.90;4.05;;;19.00;39.60;;;;;;4798457;29;20193;-82
2022/03/14 08:31:25;;;;;;;6.88;3.65;;;19.00;39.20;;;;;;4810708;29;20186;-85
2022/03/14 08:33:51;;;;;;;5.10;3.90;;;19.00;39.00;;;;;;4823397;29;20526;-83
2022/03/14 08:36:20;;;;;;;5.60;3.78;;;19.10;38.20;;;;;;4805315;29;20190;-81
2022/03/14 08:38:47;;;;;;;5.15;3.83;;;19.10;38.90;;;;;;4809979;29;20182;-84
2022/03/14 08:44:57;;;;;;;5.28;3.70;;;19.10;39.20;;;;;;4764741;30;20188;-83
2022/03/14 08:47:24;;;;;;;7.78;3.50;;;19.10;39.40;;;;;;4769621;30;20267;-84
2022/03/14 08:49:49;;;;;;;5.45;4.05;;;19.10;39.50;;;;;;4771391;30;20237;-82
2022/03/14 08:52:15;;;;;;;5.22;3.53;;;19.10;38.80;;;;;;4770046;30;20803;-83
2022/03/14 08:54:41;;;;;;;4.65;3.60;;;19.20;39.10;;;;;;4755655;30;20227;-85
2022/03/14 08:57:06;;;;;;;5.32;3.50;;;19.20;38.90;;;;;;4769630;30;20235;-83
2022/03/14 08:59:32;;;;;;;4.47;3.65;;;19.20;38.40;;;;;;4757399;30;20211;-81
2022/03/14 09:01:57;;;;;;;6.72;4.00;;;19.20;38.30;;;;;;4741113;30;20188;-81
2022/03/14 09:04:23;;;;;;;5.10;3.65;;;19.20;38.90;;;;;;4772074;30;20180;-83
2022/03/14 09:06:51;;;;;;;8.32;3.80;;;19.20;38.60;;;;;;4772040;30;20287;-83
2022/03/14 09:09:18;;;;;;;5.20;3.75;;;19.30;38.70;;;;;;4772255;30;20221;-83
2022/03/14 09:11:44;;;;;;;7.30;3.60;;;19.30;39.00;;;;;;4756013;30;20300;-83
2022/03/14 09:14:10;;;;;;;5.10;3.50;;;19.20;39.20;;;;;;4772376;30;21845;-84
2022/03/14 09:16:38;;;;;;;3.97;3.33;;;19.20;39.10;;;;;;4771395;30;20206;-82
2022/03/14 09:19:04;;;;;;;5.63;3.70;;;19.20;38.70;;;;;;4778468;29;20237;-82
2022/03/14 09:21:33;;;;;;;4.47;3.65;;;19.20;38.50;;;;;;4845804;29;20181;-82
2022/03/14 09:24:00;;;;;;;6.07;3.65;;;19.30;38.60;;;;;;4863479;29;20283;-85
2022/03/14 09:26:25;;;;;;;4.93;3.50;;;19.30;38.90;;;;;;4847598;29;20161;-81
2022/03/14 09:28:52;;;;;;;4.22;3.60;;;19.30;38.80;;;;;;4864987;29;20223;-83
2022/03/14 09:31:17;;;;;;;5.53;3.63;;;19.30;39.00;;;;;;4865041;29;20551;-81
2022/03/14 09:33:43;;;;;;;8.15;3.28;;;19.40;38.90;;;;;;4863139;29;20177;-83
2022/03/14 09:36:16;;;;;;;8.55;3.85;;;19.40;38.70;;;;;;4847327;29;20617;-82
2022/03/14 09:38:43;;;;;;;4.57;3.35;;;19.30;39.30;;;;;;4863105;29;20169;-83
2022/03/14 09:41:09;;;;;;;4.97;3.63;;;19.30;39.00;;;;;;4847415;29;20264;-81
2022/03/14 09:43:38;;;;;;;5.50;3.88;;;19.40;39.00;;;;;;4863304;29;20208;-82
2022/03/14 09:46:05;;;;;;;6.53;3.90;;;19.40;38.70;;;;;;4849154;29;20175;-83
2022/03/14 09:48:36;;;;;;;4.97;3.28;;;19.40;38.80;;;;;;4868227;29;20168;-84
2022/03/14 09:51:02;;;;;;;7.30;3.50;;;19.50;38.40;;;;;;4866183;29;20173;-84
2022/03/14 09:53:31;;;;;;;6.45;3.65;;;19.50;38.50;;;;;;4850431;29;20176;-84
2022/03/14 09:55:57;;;;;;;7.55;3.53;;;19.40;38.90;;;;;;4866818;29;20192;-86
2022/03/14 09:58:23;;;;;;;7.93;3.85;;;19.50;39.00;;;;;;4867843;29;20168;-85
2022/03/14 10:01:17;;;;;;;9.93;3.47;;;19.40;39.00;;;;;;4852267;29;20169;-83
2022/03/14 10:03:44;;;;;;;5.20;3.50;;;19.40;39.40;;;;;;4865307;29;20725;-83
2022/03/14 10:06:13;;;;;;;11.23;3.53;;;19.40;39.40;;;;;;4864273;29;20629;-83
2022/03/14 10:08:40;;;;;;;7.22;3.20;;;19.40;39.40;;;;;;4850088;29;20165;-82
2022/03/14 10:11:26;;;;;;;5.25;3.72;;;19.40;39.10;;;;;;4866669;29;20559;-83
2022/03/14 10:13:56;;;;;;;5.38;3.72;;;19.40;38.70;;;;;;4854082;29;20192;-87
2022/03/14 10:16:25;;;;;;;8.25;3.67;;;19.40;39.10;;;;;;4866630;29;20217;-84
2022/03/14 10:18:57;;;;;;;9.13;3.80;;;19.40;39.00;;;;;;4834907;29;20605;-83
2022/03/14 10:21:38;;;;;;;6.70;3.63;;;19.40;39.00;;;;;;4831787;29;20196;-83
2022/03/14 10:24:07;;;;;;;9.07;4.15;;;19.40;38.90;;;;;;4846845;29;20189;-83
2022/03/14 10:26:41;;;;;;;6.38;3.67;;;19.50;39.30;;;;;;4845756;29;20546;-85
2022/03/14 10:29:12;;;;;;;7.32;3.55;;;19.40;39.40;;;;;;4829265;29;20269;-80
2022/03/14 10:31:40;;;;;;;8.43;4.10;;;19.40;39.10;;;;;;4830314;29;20166;-81
2022/03/14 10:34:10;;;;;;;7.38;3.72;;;19.40;39.20;;;;;;4844720;29;20213;-85
2022/03/14 10:36:42;;;;;;;9.95;3.92;;;19.40;39.10;;;;;;4829373;29;20663;-81
2022/03/14 10:39:25;;;;;;;10.68;3.95;;;19.40;38.90;;;;;;4829744;29;20165;-84
2022/03/14 10:42:07;;;;;;;11.00;4.05;;;19.40;39.10;;;;;;4846380;29;20162;-83
2022/03/14 10:44:33;;;;;;;9.32;4.05;;;19.40;39.00;;;;;;4844977;29;20161;-87
2022/03/14 10:47:00;;;;;;;7.45;3.45;;;19.40;39.00;;;;;;4844485;29;20173;-84
2022/03/14 10:49:28;;;;;;;10.25;4.07;;;19.40;39.50;;;;;;4845719;29;20205;-83
2022/03/14 10:51:57;;;;;;;6.47;4.10;;;19.30;39.40;;;;;;4844368;29;20166;-82
2022/03/14 10:54:24;;;;;;;6.15;3.60;;;19.30;38.70;;;;;;4844365;29;20200;-85
2022/03/14 10:57:09;;;;;;;6.00;3.80;;;19.30;38.80;;;;;;4828305;29;20277;-82
2022/03/14 10:59:43;;;;;;;5.90;4.10;;;19.30;39.30;;;;;;4844490;29;20165;-81
2022/03/14 11:02:11;;;;;;;6.22;4.10;;;19.30;39.30;;;;;;4828641;29;20237;-83
2022/03/14 11:04:44;;;;;;;6.78;4.30;;;19.20;39.90;;;;;;4829101;29;20249;-85
2022/03/14 11:07:11;;;;;;;6.82;3.80;;;19.30;38.80;;;;;;4829231;29;20246;-83
2022/03/14 11:09:44;;;;;;;8.98;5.28;;;19.20;39.40;;;;;;4828643;29;20196;-82
2022/03/14 11:12:15;;;;;;;6.55;4.47;;;19.30;38.30;;;;;;4829688;29;20260;-86
2022/03/14 11:14:49;;;;;;;6.07;4.68;;;19.30;38.30;;;;;;4827906;29;20696;-81
2022/03/14 11:17:17;;;;;;;5.40;4.20;;;19.40;38.80;;;;;;4830571;29;20196;-86
2022/03/14 11:19:45;;;;;;;9.15;4.82;;;19.30;38.70;;;;;;4847605;29;20165;-84
2022/03/14 11:22:13;;;;;;;6.53;3.90;;;19.30;38.50;;;;;;4848257;29;20316;-85
2022/03/14 11:24:43;;;;;;;9.90;4.80;;;19.20;38.70;;;;;;4848550;29;20212;-84
2022/03/14 11:27:17;;;;;;;7.53;5.03;;;19.20;38.20;;;;;;4835230;29;20188;-84
2022/03/14 11:29:45;;;;;;;11.50;7.25;;;19.30;39.30;;;;;;4853566;29;20214;-83
2022/03/14 11:32:13;;;;;;;8.25;5.20;;;19.30;37.60;;;;;;4852332;29;20189;-82
2022/03/14 11:34:40;;;;;;;7.97;5.53;;;19.30;38.50;;;;;;4851724;29;20289;-83
2022/03/14 11:37:08;;;;;;;8.35;4.95;;;19.40;37.90;;;;;;4852870;29;20656;-82
2022/03/14 11:39:35;;;;;;;9.55;6.13;;;19.40;38.80;;;;;;4837527;29;20189;-86
2022/03/14 11:42:02;;;;;;;9.52;4.90;;;19.30;38.00;;;;;;4822471;29;20218;-86
2022/03/14 11:44:29;;;;;;;10.90;5.38;;;19.30;38.60;;;;;;4836022;29;20192;-83
2022/03/14 11:46:56;;;;;;;8.65;5.53;;;19.40;37.70;;;;;;4850963;29;20271;-83
2022/03/14 11:49:26;;;;;;;8.57;4.97;;;19.40;38.10;;;;;;4843195;29;20248;-83
2022/03/14 11:52:05;;;;;;;12.30;7.70;;;19.30;37.80;;;;;;4854857;29;20274;-83
2022/03/14 11:54:48;;;;;;;9.00;5.93;;;19.30;36.70;;;;;;4869378;29;20219;-81
2022/03/14 11:57:36;;;;;;;8.80;5.90;;;19.40;37.70;;;;;;4853449;29;20247;-82
2022/03/14 12:00:32;;;;;;;13.30;9.30;;;19.40;37.80;;;;;;4821828;29;20184;-82
2022/03/14 12:03:01;;;;;;;9.30;6.72;;;19.30;37.40;;;;;;4853743;29;20166;-85
2022/03/14 12:05:47;;;;;;;10.50;6.03;;;19.30;37.00;;;;;;4856568;29;20172;-83
2022/03/14 12:08:54;;;;;;;9.98;6.82;;;19.40;37.60;;;;;;4871309;29;20197;-86
2022/03/14 12:11:36;;;;;;;10.07;7.93;;;19.40;37.60;;;;;;4861636;29;20188;-84
2022/03/14 12:14:05;;;;;;;7.18;5.97;;;19.50;37.50;;;;;;4871812;29;20225;-82
2022/03/14 12:16:37;;;;;;;8.18;4.95;;;19.40;38.30;;;;;;4854653;29;20281;-87
2022/03/14 12:19:35;;;;;;;11.43;6.07;;;19.40;38.70;;;;;;4852730;29;20307;-86
2022/03/14 12:22:03;;;;;;;9.20;6.25;;;19.40;37.80;;;;;;4870097;29;20172;-86
2022/03/14 12:24:49;;;;;;;9.27;6.97;;;19.40;37.90;;;;;;4856960;29;20165;-80
2022/03/14 12:27:16;;;;;;;8.40;6.38;;;19.40;38.00;;;;;;4825599;29;20243;-82
2022/03/14 12:29:43;;;;;;;8.32;5.18;;;19.40;38.50;;;;;;4870014;29;20161;-85
2022/03/14 12:32:28;;;;;;;8.48;6.10;;;19.40;38.50;;;;;;4847148;29;20171;-84
2022/03/14 12:35:03;;;;;;;7.65;5.75;;;19.40;38.00;;;;;;4846779;29;20193;-86
2022/03/14 12:37:42;;;;;;;10.60;6.03;;;19.30;38.50;;;;;;4846699;29;20543;-84
2022/03/14 12:40:13;;;;;;;10.40;6.88;;;19.40;38.50;;;;;;4863418;29;20153;-85
2022/03/14 12:42:46;;;;;;;9.80;6.70;;;19.40;38.00;;;;;;4861863;29;20159;-82
2022/03/14 12:45:22;;;;;;;12.32;7.65;;;19.40;38.30;;;;;;4845190;29;20217;-84
2022/03/14 12:47:57;;;;;;;12.02;7.20;;;19.40;39.10;;;;;;4829500;29;20627;-85
2022/03/14 12:50:51;;;;;;;10.13;8.00;;;19.30;38.40;;;;;;4845530;29;20176;-82
2022/03/14 12:53:39;;;;;;;11.45;9.00;;;19.40;38.00;;;;;;4845431;29;20704;-84
2022/03/14 12:56:19;;;;;;;11.52;8.60;;;19.30;36.80;;;;;;4849254;29;20208;-87
2022/03/14 12:59:07;;;;;;;9.75;6.63;;;19.40;38.10;;;;;;4829541;29;20184;-84